createdAt,value
2023-01-09T00:00:02.443Z,2.33
2023-01-09T00:02:32.595Z,2.57
2023-01-09T00:05:00.934Z,1.03
2023-01-09T00:07:29.297Z,1.93
2023-01-09T00:09:57.667Z,1.43
2023-01-09T00:12:26.075Z,1.83
2023-01-09T00:14:54.396Z,1.97
2023-01-09T00:17:22.692Z,2.30
2023-01-09T00:19:52.377Z,2.20
2023-01-09T00:22:20.755Z,1.10
2023-01-09T00:24:49.136Z,2.17
2023-01-09T00:27:17.513Z,1.93
2023-01-09T00:29:46.658Z,1.50
2023-01-09T00:32:15.030Z,2.30
2023-01-09T00:34:44.091Z,2.87
2023-01-09T00:37:13.788Z,2.83
2023-01-09T00:39:42.914Z,2.30
2023-01-09T00:42:13.236Z,2.87
2023-01-09T00:44:43.466Z,1.53
2023-01-09T00:47:14.353Z,3.67
2023-01-09T00:49:42.878Z,4.43
2023-01-09T00:52:11.719Z,3.53
2023-01-09T00:54:42.434Z,1.67
2023-01-09T00:57:12.511Z,1.53
2023-01-09T00:59:41.130Z,3.13
2023-01-09T01:02:09.754Z,1.30
2023-01-09T01:04:55.627Z,2.00
2023-01-09T01:07:43.311Z,3.07
2023-01-09T01:10:16.916Z,3.33
2023-01-09T01:12:45.605Z,3.53
2023-01-09T01:15:14.096Z,2.60
2023-01-09T01:17:43.019Z,3.00
2023-01-09T01:20:13.379Z,1.93
2023-01-09T01:22:43.000Z,3.57
2023-01-09T01:25:11.842Z,3.53
2023-01-09T01:27:41.613Z,3.47
2023-01-09T01:30:11.601Z,2.73
2023-01-09T01:32:39.952Z,1.90
2023-01-09T01:35:08.749Z,1.63
2023-01-09T01:37:37.571Z,1.93
2023-01-09T01:40:07.579Z,3.70
2023-01-09T01:42:35.998Z,3.50
2023-01-09T01:45:09.044Z,2.50
2023-01-09T01:47:55.211Z,3.27
2023-01-09T01:50:26.358Z,3.90
2023-01-09T01:52:56.397Z,3.10
2023-01-09T01:55:25.010Z,3.50
2023-01-09T01:57:57.185Z,3.57
2023-01-09T02:00:28.989Z,2.60
2023-01-09T02:02:57.484Z,3.10
2023-01-09T02:05:25.875Z,2.80
2023-01-09T02:07:54.207Z,3.53
2023-01-09T02:10:23.522Z,3.23
2023-01-09T02:12:51.874Z,2.53
2023-01-09T02:15:20.802Z,3.40
2023-01-09T02:18:17.793Z,2.57
2023-01-09T02:20:52.525Z,3.47
2023-01-09T02:23:35.251Z,2.77
2023-01-09T02:26:17.940Z,2.00
2023-01-09T02:29:04.533Z,3.23
2023-01-09T02:31:38.774Z,3.87
2023-01-09T02:34:09.583Z,2.47
2023-01-09T02:36:41.318Z,3.07
2023-01-09T02:39:17.892Z,2.70
2023-01-09T02:41:50.077Z,2.07
2023-01-09T02:44:19.353Z,3.07
2023-01-09T02:46:49.202Z,2.53
2023-01-09T02:49:18.600Z,2.43
2023-01-09T02:51:52.545Z,3.50
2023-01-09T02:54:30.375Z,3.90
2023-01-09T02:57:16.666Z,4.70
2023-01-09T02:59:54.011Z,4.80
2023-01-09T03:02:34.568Z,2.13
2023-01-09T03:05:08.458Z,4.97
2023-01-09T03:07:39.345Z,4.50
2023-01-09T03:10:11.795Z,4.87
2023-01-09T03:12:40.829Z,5.07
2023-01-09T03:15:11.599Z,5.27
2023-01-09T03:17:42.764Z,3.37
2023-01-09T03:20:12.265Z,4.60
2023-01-09T03:22:41.346Z,2.97
2023-01-09T03:25:10.060Z,5.33
2023-01-09T03:27:38.416Z,3.73
2023-01-09T03:30:07.417Z,3.80
2023-01-09T03:32:35.739Z,3.60
2023-01-09T03:35:05.660Z,3.93
2023-01-09T03:37:34.025Z,4.73
2023-01-09T03:40:02.373Z,4.10
2023-01-09T03:42:30.834Z,5.47
2023-01-09T03:44:59.323Z,3.67
2023-01-09T03:47:27.652Z,4.50
2023-01-09T03:49:55.964Z,5.57
2023-01-09T03:52:25.671Z,4.83
2023-01-09T03:54:54.047Z,3.97
2023-01-09T03:57:24.194Z,4.70
2023-01-09T03:59:52.553Z,4.93
2023-01-09T04:02:20.938Z,5.20
2023-01-09T04:04:49.259Z,5.80
2023-01-09T04:07:17.619Z,5.70
2023-01-09T04:09:47.326Z,5.30
2023-01-09T04:12:15.693Z,5.97
2023-01-09T04:14:44.046Z,5.83
2023-01-09T04:17:12.495Z,3.50
2023-01-09T04:19:40.839Z,6.00
2023-01-09T04:22:09.332Z,6.10
2023-01-09T04:24:37.629Z,5.60
2023-01-09T04:27:07.439Z,6.70
2023-01-09T04:29:35.804Z,6.30
2023-01-09T04:32:04.161Z,6.47
2023-01-09T04:34:32.837Z,7.50
2023-01-09T04:37:01.189Z,6.73
2023-01-09T04:39:29.599Z,5.00
2023-01-09T04:41:58.019Z,4.17
2023-01-09T04:44:27.819Z,6.50
2023-01-09T04:46:57.085Z,6.60
2023-01-09T04:49:25.467Z,4.10
2023-01-09T04:51:53.789Z,6.13
2023-01-09T04:54:22.204Z,6.23
2023-01-09T04:56:50.716Z,4.93
2023-01-09T04:59:19.123Z,4.43
2023-01-09T05:01:49.041Z,5.20
2023-01-09T05:04:17.776Z,5.10
2023-01-09T05:06:46.128Z,7.53
2023-01-09T05:09:14.466Z,4.37
2023-01-09T05:11:42.777Z,4.87
2023-01-09T05:14:12.825Z,5.87
2023-01-09T05:16:41.228Z,6.10
2023-01-09T05:19:11.012Z,4.77
2023-01-09T05:21:39.360Z,5.17
2023-01-09T05:24:07.921Z,4.30
2023-01-09T05:26:36.279Z,5.70
2023-01-09T05:29:04.599Z,6.03
2023-01-09T05:31:32.963Z,5.10
2023-01-09T05:34:01.373Z,6.50
2023-01-09T05:36:31.067Z,4.20
2023-01-09T05:38:59.456Z,5.13
2023-01-09T05:41:27.873Z,6.07
2023-01-09T05:43:56.229Z,6.33
2023-01-09T05:46:24.616Z,5.30
2023-01-09T05:48:52.983Z,3.93
2023-01-09T05:51:21.338Z,6.40
2023-01-09T05:53:51.158Z,2.73
2023-01-09T05:56:19.480Z,5.50
2023-01-09T05:58:47.849Z,4.03
2023-01-09T06:01:16.212Z,5.97
2023-01-09T06:03:44.563Z,1.03
2023-01-09T06:06:12.910Z,5.03
2023-01-09T06:08:41.280Z,4.37
2023-01-09T06:11:11.094Z,6.43
2023-01-09T06:13:39.508Z,4.77
2023-01-09T06:16:08.621Z,5.90
2023-01-09T06:18:37.085Z,4.30
2023-01-09T06:21:05.652Z,7.10
2023-01-09T06:23:34.013Z,5.57
2023-01-09T06:26:02.430Z,6.50
2023-01-09T06:28:33.072Z,4.23
2023-01-09T06:31:01.623Z,3.00
2023-01-09T06:33:30.077Z,7.03
2023-01-09T06:35:58.411Z,4.63
2023-01-09T06:38:26.754Z,3.87
2023-01-09T06:40:55.183Z,6.70
2023-01-09T06:43:23.548Z,6.30
2023-01-09T06:45:53.320Z,6.73
2023-01-09T06:48:21.893Z,3.93
2023-01-09T06:50:50.452Z,7.43
2023-01-09T06:53:18.963Z,5.67
2023-01-09T06:55:47.563Z,5.63
2023-01-09T06:58:15.932Z,6.37
2023-01-09T07:00:44.451Z,6.60
2023-01-09T07:03:21.545Z,6.57
2023-01-09T07:05:50.896Z,6.13
2023-01-09T07:08:19.311Z,3.57
2023-01-09T07:10:47.761Z,1.93
2023-01-09T07:13:16.141Z,1.10
2023-01-09T07:15:44.608Z,3.10
2023-01-09T07:18:14.441Z,2.40
2023-01-09T07:20:42.930Z,2.37
2023-01-09T07:23:13.019Z,0.60
2023-01-09T07:25:41.606Z,3.43
2023-01-09T07:28:10.017Z,1.20
2023-01-09T07:30:38.536Z,1.13
2023-01-09T07:33:06.901Z,1.53
2023-01-09T07:35:36.957Z,0.63
2023-01-09T07:38:05.277Z,1.33
2023-01-09T07:40:33.655Z,2.33
2023-01-09T07:43:02.096Z,2.50
2023-01-09T07:45:30.489Z,2.13
2023-01-09T07:47:58.841Z,0.90
2023-01-09T07:50:27.265Z,0.90
2023-01-09T07:52:57.406Z,1.63
2023-01-09T07:55:25.852Z,0.70
2023-01-09T07:57:54.238Z,0.80
2023-01-09T08:00:22.859Z,0.77
2023-01-09T08:02:53.952Z,1.77
2023-01-09T08:05:22.536Z,0.60
2023-01-09T08:07:51.729Z,2.50
2023-01-09T08:10:21.582Z,1.33
2023-01-09T08:12:50.316Z,2.67
2023-01-09T08:15:19.033Z,2.63
2023-01-09T08:17:47.873Z,1.73
2023-01-09T08:20:18.365Z,3.27
2023-01-09T08:22:49.661Z,0.60
2023-01-09T08:25:20.001Z,4.47
2023-01-09T08:27:52.883Z,2.50
2023-01-09T08:30:21.371Z,5.93
2023-01-09T08:32:55.950Z,1.50
2023-01-09T08:35:24.376Z,0.77
2023-01-09T08:37:52.749Z,2.73
2023-01-09T08:40:25.533Z,1.90
2023-01-09T08:43:13.056Z,1.57
2023-01-09T08:45:59.001Z,0.83
2023-01-09T08:48:27.391Z,1.33
2023-01-09T08:50:55.754Z,4.10
2023-01-09T08:53:24.178Z,1.90
2023-01-09T08:55:52.570Z,0.83
2023-01-09T08:58:25.447Z,2.20
2023-01-09T09:00:54.010Z,0.67
2023-01-09T09:03:22.937Z,1.20
2023-01-09T09:05:51.380Z,0.97
2023-01-09T09:08:20.271Z,2.70
2023-01-09T09:10:48.628Z,1.63
2023-01-09T09:13:20.106Z,0.70
2023-01-09T09:15:49.909Z,2.53
2023-01-09T09:18:20.369Z,1.63
2023-01-09T09:20:48.904Z,2.67
2023-01-09T09:23:17.395Z,4.37
2023-01-09T09:25:45.850Z,2.20
2023-01-09T09:28:14.382Z,0.90
2023-01-09T09:30:42.833Z,2.30
2023-01-09T09:33:12.786Z,1.83
2023-01-09T09:35:44.654Z,1.93
2023-01-09T09:38:14.159Z,0.90
2023-01-09T09:40:49.007Z,3.20
2023-01-09T09:43:50.177Z,3.67
2023-01-09T09:46:22.914Z,1.90
2023-01-09T09:48:54.483Z,1.73
2023-01-09T09:51:46.237Z,2.00
2023-01-09T09:54:16.491Z,3.03
2023-01-09T09:56:49.475Z,1.13
2023-01-09T09:59:20.238Z,2.03
2023-01-09T10:01:52.056Z,2.27
2023-01-09T10:04:23.093Z,1.57
2023-01-09T10:06:53.511Z,2.07
2023-01-09T10:09:27.657Z,1.33
2023-01-09T10:11:57.855Z,2.60
2023-01-09T10:14:26.552Z,1.50
2023-01-09T10:17:19.078Z,1.83
2023-01-09T10:19:56.885Z,1.77
2023-01-09T10:22:28.724Z,2.43
2023-01-09T10:25:03.331Z,2.83
2023-01-09T10:27:38.558Z,2.87
2023-01-09T10:30:18.800Z,1.40
2023-01-09T10:32:51.761Z,2.67
2023-01-09T10:35:47.091Z,2.57
2023-01-09T10:38:20.315Z,0.83
2023-01-09T10:40:53.289Z,2.47
2023-01-09T10:43:24.838Z,2.77
2023-01-09T10:45:54.724Z,1.83
2023-01-09T10:48:26.019Z,2.77
2023-01-09T10:50:56.854Z,3.03
2023-01-09T10:53:28.479Z,1.43
2023-01-09T10:55:58.046Z,2.73
2023-01-09T10:58:26.576Z,3.40
2023-01-09T11:00:56.925Z,2.17
2023-01-09T11:03:25.584Z,2.40
2023-01-09T11:05:54.868Z,2.10
2023-01-09T11:08:26.411Z,1.90
2023-01-09T11:10:55.652Z,2.07
2023-01-09T11:13:25.877Z,1.73
2023-01-09T11:16:05.653Z,4.43
2023-01-09T11:18:34.885Z,2.73
2023-01-09T11:21:29.740Z,2.57
2023-01-09T11:24:18.918Z,1.37
2023-01-09T11:26:48.163Z,2.57
2023-01-09T11:29:17.209Z,3.10
2023-01-09T11:31:52.536Z,4.83
2023-01-09T11:34:22.486Z,2.20
2023-01-09T11:36:51.737Z,2.07
2023-01-09T11:39:25.052Z,2.60
2023-01-09T11:41:56.039Z,2.67
2023-01-09T11:44:25.052Z,2.50
2023-01-09T11:46:53.741Z,1.90
2023-01-09T11:49:24.320Z,2.47
2023-01-09T11:52:16.950Z,2.23
2023-01-09T11:54:49.309Z,1.93
2023-01-09T11:57:17.891Z,3.60
2023-01-09T11:59:46.290Z,2.97
2023-01-09T12:02:34.639Z,1.83
2023-01-09T12:05:03.876Z,3.30
2023-01-09T12:07:45.489Z,1.83
2023-01-09T12:10:29.571Z,2.27
2023-01-09T12:13:02.348Z,3.83
2023-01-09T12:15:35.032Z,3.13
2023-01-09T12:18:25.971Z,3.50
2023-01-09T12:21:02.870Z,4.53
2023-01-09T12:23:36.549Z,4.00
2023-01-09T12:26:12.216Z,4.70
2023-01-09T12:28:49.156Z,3.97
2023-01-09T12:31:26.689Z,2.27
2023-01-09T12:34:01.333Z,2.60
2023-01-09T12:36:34.316Z,1.97
2023-01-09T12:39:06.419Z,2.23
2023-01-09T12:41:53.476Z,2.77
2023-01-09T12:44:36.531Z,3.03
2023-01-09T12:47:15.835Z,2.37
2023-01-09T12:49:48.243Z,2.63
2023-01-09T12:52:20.457Z,2.30
2023-01-09T12:54:51.431Z,2.17
2023-01-09T12:57:24.603Z,1.40
2023-01-09T12:59:54.545Z,1.97
2023-01-09T13:02:27.859Z,2.77
2023-01-09T13:04:59.986Z,2.17
2023-01-09T13:07:30.890Z,2.77
2023-01-09T13:10:01.616Z,1.53
2023-01-09T13:12:33.919Z,2.37
2023-01-09T13:15:04.846Z,2.40
2023-01-09T13:17:38.622Z,2.93
2023-01-09T13:20:14.423Z,2.03
2023-01-09T13:22:47.680Z,2.80
2023-01-09T13:25:21.817Z,1.67
2023-01-09T13:27:57.129Z,3.03
2023-01-09T13:30:35.368Z,3.03
2023-01-09T13:33:11.673Z,3.63
2023-01-09T13:35:49.584Z,2.80
2023-01-09T13:38:20.027Z,2.20
2023-01-09T13:40:48.539Z,1.60
2023-01-09T13:43:18.338Z,2.03
2023-01-09T13:45:52.588Z,3.23
2023-01-09T13:48:31.123Z,3.57
2023-01-09T13:51:18.010Z,2.33
2023-01-09T13:53:49.514Z,1.93
2023-01-09T13:56:18.872Z,2.77
2023-01-09T13:59:05.410Z,1.83
2023-01-09T14:01:47.618Z,2.40
2023-01-09T14:04:29.828Z,2.20
2023-01-09T14:07:16.718Z,1.70
2023-01-09T14:09:48.863Z,2.53
2023-01-09T14:12:22.425Z,2.37
2023-01-09T14:14:53.813Z,2.13
2023-01-09T14:17:28.492Z,2.03
2023-01-09T14:19:58.593Z,2.03
2023-01-09T14:22:42.444Z,2.40
2023-01-09T14:28:10.533Z,1.83
2023-01-09T14:30:44.546Z,1.70
2023-01-09T14:33:29.879Z,2.10
2023-01-09T14:36:05.326Z,2.53
2023-01-09T14:38:35.783Z,2.67
2023-01-09T14:41:07.664Z,2.20
2023-01-09T14:43:54.031Z,2.30
2023-01-09T14:46:24.590Z,2.43
2023-01-09T14:49:03.654Z,2.00
2023-01-09T14:51:33.605Z,1.77
2023-01-09T14:54:02.438Z,3.33
2023-01-09T14:56:31.834Z,2.63
2023-01-09T14:59:13.028Z,2.60
2023-01-09T15:01:44.295Z,3.13
2023-01-09T15:04:28.012Z,2.37
2023-01-09T15:06:56.424Z,3.67
2023-01-09T15:09:26.880Z,1.20
2023-01-09T15:11:56.476Z,0.97
2023-01-09T15:14:31.515Z,3.37
2023-01-09T15:17:02.187Z,3.40
2023-01-09T15:19:31.873Z,1.27
2023-01-09T15:22:04.893Z,3.77
2023-01-09T15:24:34.429Z,1.60
2023-01-09T15:27:05.224Z,2.10
2023-01-09T15:29:33.717Z,1.80
2023-01-09T15:32:06.355Z,2.70
2023-01-09T15:34:35.066Z,2.23
2023-01-09T15:37:07.184Z,2.17
2023-01-09T15:39:39.778Z,2.23
2023-01-09T15:42:36.891Z,2.13
2023-01-09T15:45:05.618Z,1.53
2023-01-09T15:47:35.452Z,2.23
2023-01-09T15:50:05.337Z,2.03
2023-01-09T15:52:33.781Z,1.50
2023-01-09T15:55:02.282Z,1.50
2023-01-09T15:57:34.133Z,2.13
2023-01-09T16:00:27.196Z,0.70
2023-01-09T16:03:12.954Z,3.13
2023-01-09T16:05:41.843Z,2.80
2023-01-09T16:08:20.742Z,2.60
2023-01-09T16:10:51.609Z,1.30
2023-01-09T16:13:20.072Z,1.27
2023-01-09T16:15:48.538Z,1.67
2023-01-09T16:18:23.680Z,1.80
2023-01-09T16:21:02.859Z,2.00
2023-01-09T16:23:32.382Z,1.03
2023-01-09T16:26:05.240Z,1.10
2023-01-09T16:28:33.842Z,1.77
2023-01-09T16:31:03.667Z,2.47
2023-01-09T16:33:34.281Z,1.53
2023-01-09T16:36:03.440Z,1.27
2023-01-09T16:38:31.838Z,2.80
2023-01-09T16:41:17.812Z,2.20
2023-01-09T16:43:49.629Z,2.57
2023-01-09T16:46:21.180Z,2.30
2023-01-09T16:48:51.281Z,3.30
2023-01-09T16:51:21.576Z,2.50
2023-01-09T16:53:50.127Z,1.63
2023-01-09T16:56:22.008Z,1.57
2023-01-09T16:58:50.485Z,2.40
2023-01-09T17:01:18.912Z,2.33
2023-01-09T17:03:47.811Z,2.70
2023-01-09T17:06:19.720Z,2.43
2023-01-09T17:08:48.096Z,1.77
2023-01-09T17:11:21.389Z,3.00
2023-01-09T17:13:49.892Z,1.20
2023-01-09T17:16:19.534Z,1.90
2023-01-09T17:18:48.070Z,2.13
2023-01-09T17:21:19.057Z,2.07
2023-01-09T17:23:47.701Z,1.87
2023-01-09T17:26:35.445Z,1.80
2023-01-09T17:29:04.221Z,3.03
2023-01-09T17:31:32.629Z,1.97
2023-01-09T17:34:01.012Z,2.30
2023-01-09T17:36:32.303Z,1.50
2023-01-09T17:39:01.138Z,2.07
2023-01-09T17:41:30.662Z,1.30
2023-01-09T17:43:59.514Z,1.67
2023-01-09T17:46:30.321Z,2.33
2023-01-09T17:48:58.819Z,1.50
2023-01-09T17:51:27.252Z,3.00
2023-01-09T17:53:57.157Z,2.17
2023-01-09T17:56:27.018Z,2.70
2023-01-09T17:58:55.429Z,2.30
2023-01-09T18:01:23.867Z,1.97
2023-01-09T18:03:52.451Z,3.07
2023-01-09T18:06:22.101Z,2.97
2023-01-09T18:08:50.677Z,2.93
2023-01-09T18:11:21.593Z,2.40
2023-01-09T18:13:50.908Z,2.63
2023-01-09T18:16:20.011Z,3.70
2023-01-09T18:18:48.401Z,3.67
2023-01-09T18:21:17.616Z,3.37
2023-01-09T18:23:47.563Z,3.90
2023-01-09T18:26:20.794Z,3.20
2023-01-09T18:28:51.596Z,2.10
2023-01-09T18:31:22.781Z,1.00
2023-01-09T18:33:52.841Z,1.90
2023-01-09T18:36:22.029Z,3.57
2023-01-09T18:38:53.883Z,1.33
2023-01-09T18:41:22.867Z,3.63
2023-01-09T18:43:52.946Z,2.17
2023-01-09T18:46:24.553Z,2.87
2023-01-09T18:48:53.582Z,1.93
2023-01-09T18:51:22.383Z,3.30
2023-01-09T18:53:51.090Z,2.03
2023-01-09T18:56:20.048Z,2.83
2023-01-09T18:58:48.582Z,4.40
2023-01-09T19:01:18.616Z,2.73
2023-01-09T19:03:47.211Z,2.00
2023-01-09T19:06:15.650Z,3.27
2023-01-09T19:08:44.144Z,2.00
2023-01-09T19:11:12.545Z,3.77
2023-01-09T19:13:41.181Z,2.37
2023-01-09T19:16:10.779Z,3.40
2023-01-09T19:18:41.544Z,2.17
2023-01-09T19:21:13.674Z,2.70
2023-01-09T19:23:42.794Z,2.37
2023-01-09T19:26:18.828Z,2.73
2023-01-09T19:28:47.205Z,3.43
2023-01-09T19:31:15.823Z,3.50
2023-01-09T19:33:45.864Z,2.53
2023-01-09T19:36:14.302Z,2.13
2023-01-09T19:38:43.650Z,3.37
2023-01-09T19:41:14.144Z,3.27
2023-01-09T19:43:42.597Z,2.67
2023-01-09T19:46:11.353Z,2.43
2023-01-09T19:48:39.899Z,1.87
2023-01-09T19:51:09.981Z,1.77
2023-01-09T19:53:38.671Z,2.07
2023-01-09T19:56:14.170Z,3.27
2023-01-09T19:58:42.831Z,2.47
2023-01-09T20:01:12.607Z,3.83
2023-01-09T20:03:41.817Z,1.93
2023-01-09T20:06:14.057Z,3.63
2023-01-09T20:08:42.696Z,2.93
2023-01-09T20:11:11.187Z,1.90
2023-01-09T20:13:39.602Z,2.37
2023-01-09T20:16:08.868Z,3.03
2023-01-09T20:18:37.302Z,2.03
2023-01-09T20:21:06.730Z,3.40
2023-01-09T20:23:37.619Z,2.70
2023-01-09T20:26:06.145Z,1.80
2023-01-09T20:28:34.511Z,2.03
2023-01-09T20:31:05.696Z,2.90
2023-01-09T20:33:35.038Z,2.43
2023-01-09T20:36:04.774Z,2.80
2023-01-09T20:38:33.426Z,3.40
2023-01-09T20:41:09.917Z,3.40
2023-01-09T20:43:40.137Z,2.10
2023-01-09T20:46:09.413Z,2.80
2023-01-09T20:48:37.901Z,3.27
2023-01-09T20:51:06.991Z,3.73
2023-01-09T20:53:35.383Z,2.33
2023-01-09T20:56:05.200Z,2.97
2023-01-09T20:58:35.091Z,4.50
2023-01-09T21:01:06.888Z,4.13
2023-01-09T21:03:35.313Z,1.73
2023-01-09T21:06:06.016Z,3.60
2023-01-09T21:08:34.676Z,2.80
2023-01-09T21:11:03.525Z,3.40
2023-01-09T21:13:32.279Z,1.07
2023-01-09T21:16:04.201Z,2.67
2023-01-09T21:18:32.916Z,4.53
2023-01-09T21:21:03.674Z,1.60
2023-01-09T21:23:32.111Z,3.03
2023-01-09T21:26:00.802Z,2.50
2023-01-09T21:28:31.391Z,1.70
2023-01-09T21:30:59.763Z,2.00
2023-01-09T21:33:29.499Z,1.67
2023-01-09T21:35:58.685Z,1.87
2023-01-09T21:38:28.402Z,2.10
2023-01-09T21:40:56.758Z,2.77
2023-01-09T21:43:44.566Z,2.27
2023-01-09T21:46:37.171Z,1.50
2023-01-09T21:49:07.224Z,1.10
2023-01-09T21:51:38.902Z,1.47
2023-01-09T21:54:07.339Z,2.30
2023-01-09T21:56:35.821Z,2.07
2023-01-09T21:59:04.193Z,1.93
2023-01-09T22:01:32.706Z,2.73
2023-01-09T22:04:01.171Z,1.40
2023-01-09T22:06:31.407Z,2.00
2023-01-09T22:09:00.445Z,2.20
2023-01-09T22:11:29.594Z,0.80
2023-01-09T22:14:00.392Z,2.20
2023-01-09T22:16:28.783Z,2.63
2023-01-09T22:18:57.251Z,1.87
2023-01-09T22:21:25.846Z,2.13
2023-01-09T22:23:55.683Z,1.57
2023-01-09T22:26:24.057Z,1.73
2023-01-09T22:28:52.495Z,0.93
2023-01-09T22:31:26.577Z,1.20
2023-01-09T22:33:55.698Z,1.80
2023-01-09T22:36:24.127Z,3.93
2023-01-09T22:38:56.812Z,1.93
2023-01-09T22:41:25.760Z,3.77
2023-01-09T22:43:54.207Z,3.80
2023-01-09T22:46:22.899Z,2.70
2023-01-09T22:48:51.357Z,2.70
2023-01-09T22:51:20.676Z,2.83
2023-01-09T22:53:49.117Z,3.57
2023-01-09T22:56:20.475Z,1.83
2023-01-09T22:58:51.627Z,2.37
2023-01-09T23:01:20.179Z,3.37
2023-01-09T23:03:48.524Z,1.47
2023-01-09T23:06:18.022Z,2.90
2023-01-09T23:08:47.146Z,2.70
2023-01-09T23:11:16.594Z,0.90
2023-01-09T23:13:46.354Z,1.47
2023-01-09T23:16:14.749Z,1.53
2023-01-09T23:18:43.232Z,3.03
2023-01-09T23:21:12.073Z,2.10
2023-01-09T23:23:40.466Z,3.10
2023-01-09T23:26:08.897Z,2.37
2023-01-09T23:28:37.277Z,3.20
2023-01-09T23:31:07.159Z,3.37
2023-01-09T23:33:35.478Z,1.60
2023-01-09T23:36:03.837Z,1.83
2023-01-09T23:38:32.205Z,2.70
2023-01-09T23:41:00.621Z,2.33
2023-01-09T23:43:28.035Z,2.73
2023-01-09T23:45:56.745Z,2.27
2023-01-09T23:48:26.656Z,2.40
2023-01-09T23:50:55.797Z,4.13
2023-01-09T23:53:24.322Z,4.07
2023-01-09T23:55:55.661Z,2.10
2023-01-09T23:58:24.053Z,2.93
